Portada
METAR-TAF:

METAR-TAF

Aeropuertos :

Aeropuerto Internacional Wattay

Vientián, Laos

latitud: 17-57N, longitud: 102-34E, altitud: 171 m

Observación

El informe se hizo hace 42 minutos, a las 16:00 UTC
Viento 2 kt del noroeste
Temperatura 14°C
Humedad 94%
Presión 1016 hPa
Visibilidad: 3000 m
neblina

METAR: VLVT 111600Z 32002KT 3000 BR NSC 14/13 Q1016 NOSIG

Hora: 23:42 (16:42 UTC)

Pronóstico

El informe se hizo hace 5 horas y 42 minutos, a las 11:00 UTC
Pronóstico válido del 11 a las 12 UTC al 12 a las 12 UTC
Viento 4 kt del norte-noroeste
Visibilidad: 8000 m
Escasas nubes a una altura de 2000 ft
Temporalmente
del 11 a las 14 UTC al 11 a las 20 UTC
Visibilidad: 4000 m
neblina

TAF: VLVT 111100Z 1112/1212 34004KT 8000 FEW020 TEMPO 1114/1120 4000 BR NSC

Observaciones y pronósticos meteorológicos de más de 4000 aeropuertos (mensajes METAR y TAF).

Los puntos amarillos y rojos representan las estaciones disponibles.

Ponga el ratón en el punto deseado para ver el nombre de la estación.

Haga clic para ver las observaciones y los pronósticos meteorológicos.

Para cambiar el mapa : haga clic en los botones verdes con una cruz de color negro para hacer un zoom, en el botón verde con un guión para alejar o en las flechas verdes para mapas adyacentes.


METAR-TAF: